Beaufort MCAS - Merritt Field
KNBC : now visible

Airfield :











YOU CAN JOIN US ON...

 
LOGIN :

Register | Disclaimer

   EN    FR    IT 

 









Legend :    VFR   Marginal VFR   IFR   Intensive IFR   Very Intensive IFR
Visi :
Ceiling :
>= 8 km
>= 3000ft
5 to 8 km
1000 to 3000 ft
1500m to 5 km
500 to 1000 ft
800 to 1500m
200 to 500 ft
< 800m
< 200 ft
Symbols :   Thunderstorms  Fog  Heavy snow  Heavy precipitations  Wind > 20 kt






- Airport Elevation : 37 ft


KNBC - Beaufort MCAS - Merritt Field

CURRENT METAR :
  • 161156Z 23008KT 7SM SCT100 27/24 A3005 RMK AO2 SLP175 FIRST T02720239 10272 20256 51016

EXPIRED METARs :
  • 161056Z 22004KT 10SM SCT090 26/23 A3004 RMK AO2 SLP172 T02560233
  • 160956Z AUTO 24006KT 10SM CLR 26/23 A3002 RMK AO2 SLP167 T02610228
  • 160856Z AUTO 23008KT 10SM CLR 26/23 A3000 RMK AO2 SLP159 T02610228 53002
  • 160756Z AUTO 22005KT 10SM CLR 26/23 A2998 RMK AO2 SLP153 T02610228

TAF TAF KNBC
Valid from the 16 at 09:00 until the 17 at 09:00 UTC


1609/1709 24008KT 9999 BKN090 QNH2995INS
TEMPO 1616/1622 20010G20KT 4800 TSRA BR BKN020CB BKN140
FM162300 19011KT 9999 BKN020 OVC140 QNH2996INS
TEMPO 1703/1709 3200 TSRA BR BKN020CB OVC080 T26/1611Z T35/1619Z
KZJX FIR / North America



MET'MAP, your aeronautical weather chart ! - Copyright ORBIFLY December 2007 - Disclaimer

ORBIFLY MET'MAP TEAM :

Programming & Development : Alexandra Zaïnal
Original concept : Baudouin d'Aumeries
Technical & hardware support : Manuel Goepfert
Assistance : Marc-Olivier Méhu




SOURCES & CREDITS :

   NOAA       Earth
Advisory